sensor_id;sensor_type;location;lat;lon;timestamp;pressure;altitude;pressure_sealevel;temperature;humidity
39141;BME280;24875;48.436;10.298;2022-11-20T00:00:01;95700.72;;;6.65;100.00
39141;BME280;24875;48.436;10.298;2022-11-20T00:02:27;95699.75;;;6.66;100.00
39141;BME280;24875;48.436;10.298;2022-11-20T00:04:53;95701.38;;;6.59;100.00
39141;BME280;24875;48.436;10.298;2022-11-20T00:07:21;95708.75;;;6.64;100.00
39141;BME280;24875;48.436;10.298;2022-11-20T00:09:48;95700.25;;;6.54;100.00
39141;BME280;24875;48.436;10.298;2022-11-20T00:12:14;95705.00;;;6.58;100.00
39141;BME280;24875;48.436;10.298;2022-11-20T00:14:41;95709.75;;;6.55;100.00
39141;BME280;24875;48.436;10.298;2022-11-20T00:17:07;95713.03;;;6.33;100.00
39141;BME280;24875;48.436;10.298;2022-11-20T00:19:34;95705.34;;;6.47;100.00
39141;BME280;24875;48.436;10.298;2022-11-20T00:22:00;95721.84;;;6.40;100.00
39141;BME280;24875;48.436;10.298;2022-11-20T00:24:28;95722.66;;;6.56;100.00
39141;BME280;24875;48.436;10.298;2022-11-20T00:26:55;95720.88;;;6.41;100.00
39141;BME280;24875;48.436;10.298;2022-11-20T00:29:21;95726.59;;;6.52;100.00
39141;BME280;24875;48.436;10.298;2022-11-20T00:31:48;95724.63;;;6.46;100.00
39141;BME280;24875;48.436;10.298;2022-11-20T00:34:14;95725.47;;;6.47;100.00
39141;BME280;24875;48.436;10.298;2022-11-20T00:36:41;95727.44;;;6.37;100.00
39141;BME280;24875;48.436;10.298;2022-11-20T00:39:07;95736.91;;;6.38;100.00
39141;BME280;24875;48.436;10.298;2022-11-20T00:41:35;95735.28;;;6.29;100.00
39141;BME280;24875;48.436;10.298;2022-11-20T00:44:01;95738.19;;;6.34;100.00
39141;BME280;24875;48.436;10.298;2022-11-20T00:46:28;95728.22;;;6.37;100.00
39141;BME280;24875;48.436;10.298;2022-11-20T00:48:55;95740.00;;;6.33;100.00
39141;BME280;24875;48.436;10.298;2022-11-20T00:51:23;95735.91;;;6.39;100.00
39141;BME280;24875;48.436;10.298;2022-11-20T00:53:50;95740.50;;;6.45;100.00
39141;BME280;24875;48.436;10.298;2022-11-20T00:56:18;95740.19;;;6.32;100.00
39141;BME280;24875;48.436;10.298;2022-11-20T00:58:47;95730.06;;;6.29;100.00
39141;BME280;24875;48.436;10.298;2022-11-20T01:01:15;95742.47;;;6.27;100.00
39141;BME280;24875;48.436;10.298;2022-11-20T01:03:44;95747.69;;;6.19;100.00
39141;BME280;24875;48.436;10.298;2022-11-20T01:06:12;95745.25;;;6.25;100.00
39141;BME280;24875;48.436;10.298;2022-11-20T01:08:39;95754.56;;;6.20;100.00
39141;BME280;24875;48.436;10.298;2022-11-20T01:11:07;95751.13;;;6.19;100.00
39141;BME280;24875;48.436;10.298;2022-11-20T01:13:35;95763.22;;;6.12;100.00
39141;BME280;24875;48.436;10.298;2022-11-20T01:16:09;95757.31;;;6.10;100.00
39141;BME280;24875;48.436;10.298;2022-11-20T01:18:38;95764.38;;;6.18;100.00
39141;BME280;24875;48.436;10.298;2022-11-20T01:21:07;95771.38;;;6.09;100.00
39141;BME280;24875;48.436;10.298;2022-11-20T01:23:35;95766.47;;;6.14;100.00
39141;BME280;24875;48.436;10.298;2022-11-20T01:26:04;95764.66;;;6.07;100.00
39141;BME280;24875;48.436;10.298;2022-11-20T01:28:32;95766.13;;;5.86;100.00
39141;BME280;24875;48.436;10.298;2022-11-20T01:30:58;95770.22;;;5.88;100.00
39141;BME280;24875;48.436;10.298;2022-11-20T01:33:27;95770.50;;;5.85;100.00
39141;BME280;24875;48.436;10.298;2022-11-20T01:36:03;95771.69;;;5.99;100.00
39141;BME280;24875;48.436;10.298;2022-11-20T01:38:30;95776.81;;;5.75;100.00
39141;BME280;24875;48.436;10.298;2022-11-20T01:40:56;95769.69;;;5.77;100.00
39141;BME280;24875;48.436;10.298;2022-11-20T01:43:23;95778.59;;;5.66;100.00
39141;BME280;24875;48.436;10.298;2022-11-20T01:45:59;95772.72;;;5.72;100.00
39141;BME280;24875;48.436;10.298;2022-11-20T01:48:32;95770.25;;;5.63;100.00
39141;BME280;24875;48.436;10.298;2022-11-20T01:51:00;95773.69;;;5.63;100.00
39141;BME280;24875;48.436;10.298;2022-11-20T01:53:32;95781.06;;;5.68;100.00
39141;BME280;24875;48.436;10.298;2022-11-20T01:56:05;95769.91;;;5.58;100.00
39141;BME280;24875;48.436;10.298;2022-11-20T01:58:35;95767.47;;;5.56;100.00
39141;BME280;24875;48.436;10.298;2022-11-20T02:01:05;95765.28;;;5.44;100.00
39141;BME280;24875;48.436;10.298;2022-11-20T02:03:32;95769.53;;;5.45;100.00
39141;BME280;24875;48.436;10.298;2022-11-20T02:06:04;95768.44;;;5.55;100.00
39141;BME280;24875;48.436;10.298;2022-11-20T02:08:33;95766.41;;;5.42;100.00
39141;BME280;24875;48.436;10.298;2022-11-20T02:11:01;95769.03;;;5.42;100.00
39141;BME280;24875;48.436;10.298;2022-11-20T02:13:28;95763.94;;;5.32;100.00
39141;BME280;24875;48.436;10.298;2022-11-20T02:16:11;95762.31;;;5.39;100.00
39141;BME280;24875;48.436;10.298;2022-11-20T02:18:41;95764.13;;;5.39;100.00
39141;BME280;24875;48.436;10.298;2022-11-20T02:21:14;95769.84;;;5.42;100.00
39141;BME280;24875;48.436;10.298;2022-11-20T02:24:07;95769.47;;;5.37;100.00
39141;BME280;24875;48.436;10.298;2022-11-20T02:26:41;95770.75;;;5.25;100.00
39141;BME280;24875;48.436;10.298;2022-11-20T02:29:09;95774.25;;;5.08;100.00
39141;BME280;24875;48.436;10.298;2022-11-20T02:31:37;95775.00;;;5.26;100.00
39141;BME280;24875;48.436;10.298;2022-11-20T02:34:04;95766.50;;;5.24;100.00
39141;BME280;24875;48.436;10.298;2022-11-20T02:36:33;95776.00;;;5.33;100.00
39141;BME280;24875;48.436;10.298;2022-11-20T02:39:01;95774.38;;;5.32;100.00
39141;BME280;24875;48.436;10.298;2022-11-20T02:41:33;95772.41;;;5.34;100.00
39141;BME280;24875;48.436;10.298;2022-11-20T02:44:00;95776.00;;;5.33;100.00
39141;BME280;24875;48.436;10.298;2022-11-20T02:46:27;95767.91;;;5.44;100.00
39141;BME280;24875;48.436;10.298;2022-11-20T02:48:53;95767.56;;;5.47;100.00
39141;BME280;24875;48.436;10.298;2022-11-20T02:51:20;95765.13;;;5.45;100.00
39141;BME280;24875;48.436;10.298;2022-11-20T02:53:46;95771.47;;;5.43;100.00
39141;BME280;24875;48.436;10.298;2022-11-20T02:56:13;95765.63;;;5.41;100.00
39141;BME280;24875;48.436;10.298;2022-11-20T02:58:41;95773.81;;;5.46;100.00
39141;BME280;24875;48.436;10.298;2022-11-20T03:01:07;95767.91;;;5.44;100.00
39141;BME280;24875;48.436;10.298;2022-11-20T03:03:34;95769.84;;;5.42;100.00
39141;BME280;24875;48.436;10.298;2022-11-20T03:06:00;95772.19;;;5.53;100.00
39141;BME280;24875;48.436;10.298;2022-11-20T03:08:27;95768.41;;;5.47;100.00
39141;BME280;24875;48.436;10.298;2022-11-20T03:10:53;95764.59;;;5.42;100.00
39141;BME280;24875;48.436;10.298;2022-11-20T03:13:20;95762.50;;;5.45;100.00
39141;BME280;24875;48.436;10.298;2022-11-20T03:15:47;95763.03;;;5.49;100.00
39141;BME280;24875;48.436;10.298;2022-11-20T03:18:14;95767.88;;;5.36;100.00
39141;BME280;24875;48.436;10.298;2022-11-20T03:20:40;95761.78;;;5.28;100.00
39141;BME280;24875;48.436;10.298;2022-11-20T03:23:07;95756.88;;;5.25;100.00
39141;BME280;24875;48.436;10.298;2022-11-20T03:25:33;95758.63;;;5.16;100.00
39141;BME280;24875;48.436;10.298;2022-11-20T03:28:00;95763.97;;;5.07;100.00
39141;BME280;24875;48.436;10.298;2022-11-20T03:30:27;95760.59;;;5.14;100.00
39141;BME280;24875;48.436;10.298;2022-11-20T03:32:54;95764.94;;;5.06;100.00
39141;BME280;24875;48.436;10.298;2022-11-20T03:35:21;95754.94;;;5.01;100.00
39141;BME280;24875;48.436;10.298;2022-11-20T03:37:47;95758.81;;;4.89;100.00
39141;BME280;24875;48.436;10.298;2022-11-20T03:40:14;95762.75;;;4.93;100.00
39141;BME280;24875;48.436;10.298;2022-11-20T03:42:41;95754.06;;;4.85;100.00
39141;BME280;24875;48.436;10.298;2022-11-20T03:45:13;95759.09;;;4.79;100.00
39141;BME280;24875;48.436;10.298;2022-11-20T03:47:40;95758.41;;;4.77;100.00
39141;BME280;24875;48.436;10.298;2022-11-20T03:50:09;95750.31;;;4.87;100.00
39141;BME280;24875;48.436;10.298;2022-11-20T03:52:37;95754.06;;;4.85;100.00
39141;BME280;24875;48.436;10.298;2022-11-20T03:55:04;95760.41;;;4.82;100.00
39141;BME280;24875;48.436;10.298;2022-11-20T03:57:31;95755.06;;;4.92;100.00
39141;BME280;24875;48.436;10.298;2022-11-20T03:59:57;95753.22;;;4.84;100.00
39141;BME280;24875;48.436;10.298;2022-11-20T04:02:24;95746.06;;;4.86;100.00
39141;BME280;24875;48.436;10.298;2022-11-20T04:04:50;95746.78;;;4.96;100.00
39141;BME280;24875;48.436;10.298;2022-11-20T04:07:18;95751.00;;;4.97;100.00
39141;BME280;24875;48.436;10.298;2022-11-20T04:09:45;95758.47;;;4.92;100.00
39141;BME280;24875;48.436;10.298;2022-11-20T04:12:11;95753.34;;;5.00;100.00
39141;BME280;24875;48.436;10.298;2022-11-20T04:14:37;95747.91;;;4.94;100.00
39141;BME280;24875;48.436;10.298;2022-11-20T04:17:04;95753.63;;;4.97;100.00
39141;BME280;24875;48.436;10.298;2022-11-20T04:19:30;95753.63;;;4.97;100.00
39141;BME280;24875;48.436;10.298;2022-11-20T04:21:57;95755.94;;;5.00;100.00
39141;BME280;24875;48.436;10.298;2022-11-20T04:24:25;95752.75;;;5.14;100.00
39141;BME280;24875;48.436;10.298;2022-11-20T04:26:52;95752.22;;;5.03;100.00
39141;BME280;24875;48.436;10.298;2022-11-20T04:29:18;95751.69;;;4.99;100.00
39141;BME280;24875;48.436;10.298;2022-11-20T04:31:45;95744.50;;;5.01;100.00
39141;BME280;24875;48.436;10.298;2022-11-20T04:34:11;95746.56;;;4.90;100.00
39141;BME280;24875;48.436;10.298;2022-11-20T04:36:38;95746.06;;;4.86;100.00
39141;BME280;24875;48.436;10.298;2022-11-20T04:39:06;95761.28;;;4.99;100.00
39141;BME280;24875;48.436;10.298;2022-11-20T04:41:35;95754.31;;;4.99;100.00
39141;BME280;24875;48.436;10.298;2022-11-20T04:44:03;95762.44;;;4.96;100.00
39141;BME280;24875;48.436;10.298;2022-11-20T04:46:31;95769.59;;;4.94;100.00
39141;BME280;24875;48.436;10.298;2022-11-20T04:48:59;95766.69;;;4.97;100.00
39141;BME280;24875;48.436;10.298;2022-11-20T04:51:25;95768.81;;;4.94;100.00
39141;BME280;24875;48.436;10.298;2022-11-20T04:53:52;95761.41;;;4.89;100.00
39141;BME280;24875;48.436;10.298;2022-11-20T04:56:18;95770.69;;;4.84;100.00
39141;BME280;24875;48.436;10.298;2022-11-20T04:58:46;95760.44;;;4.90;100.00
39141;BME280;24875;48.436;10.298;2022-11-20T05:01:14;95770.13;;;4.73;100.00
39141;BME280;24875;48.436;10.298;2022-11-20T05:03:42;95764.75;;;4.74;100.00
39141;BME280;24875;48.436;10.298;2022-11-20T05:06:09;95763.56;;;4.69;100.00
39141;BME280;24875;48.436;10.298;2022-11-20T05:08:36;95765.28;;;4.60;100.00
39141;BME280;24875;48.436;10.298;2022-11-20T05:11:04;95761.72;;;4.61;100.00
39141;BME280;24875;48.436;10.298;2022-11-20T05:13:31;95768.06;;;4.59;100.00
39141;BME280;24875;48.436;10.298;2022-11-20T05:16:02;95766.47;;;4.66;100.00
39141;BME280;24875;48.436;10.298;2022-11-20T05:18:30;95771.31;;;4.61;100.00
39141;BME280;24875;48.436;10.298;2022-11-20T05:20:56;95772.00;;;4.63;100.00
39141;BME280;24875;48.436;10.298;2022-11-20T05:23:23;95778.50;;;4.59;100.00
39141;BME280;24875;48.436;10.298;2022-11-20T05:25:52;95775.22;;;4.57;100.00
39141;BME280;24875;48.436;10.298;2022-11-20T05:28:18;95774.03;;;4.51;100.00
39141;BME280;24875;48.436;10.298;2022-11-20T05:30:44;95777.38;;;4.61;100.00
39141;BME280;24875;48.436;10.298;2022-11-20T05:33:12;95766.47;;;4.66;100.00
39141;BME280;24875;48.436;10.298;2022-11-20T05:35:39;95779.03;;;4.45;100.00
39141;BME280;24875;48.436;10.298;2022-11-20T05:38:06;95774.50;;;4.47;100.00
39141;BME280;24875;48.436;10.298;2022-11-20T05:40:32;95776.13;;;4.48;100.00
39141;BME280;24875;48.436;10.298;2022-11-20T05:42:59;95770.91;;;4.48;100.00
39141;BME280;24875;48.436;10.298;2022-11-20T05:45:26;95767.38;;;4.57;100.00
39141;BME280;24875;48.436;10.298;2022-11-20T05:47:52;95767.75;;;4.62;100.00
39141;BME280;24875;48.436;10.298;2022-11-20T05:50:20;95759.75;;;4.63;100.00
39141;BME280;24875;48.436;10.298;2022-11-20T05:52:47;95761.00;;;4.51;100.00
39141;BME280;24875;48.436;10.298;2022-11-20T05:55:13;95763.63;;;4.34;100.00
39141;BME280;24875;48.436;10.298;2022-11-20T05:57:40;95765.41;;;4.51;100.00
39141;BME280;24875;48.436;10.298;2022-11-20T06:00:08;95764.19;;;4.63;100.00
39141;BME280;24875;48.436;10.298;2022-11-20T06:02:34;95758.97;;;4.63;100.00
39141;BME280;24875;48.436;10.298;2022-11-20T06:05:02;95759.91;;;4.62;100.00
39141;BME280;24875;48.436;10.298;2022-11-20T06:07:30;95761.03;;;4.59;100.00
39141;BME280;24875;48.436;10.298;2022-11-20T06:09:56;95758.63;;;4.66;100.00
39141;BME280;24875;48.436;10.298;2022-11-20T06:12:23;95766.84;;;4.71;100.00
39141;BME280;24875;48.436;10.298;2022-11-20T06:14:49;95768.16;;;4.75;100.00
39141;BME280;24875;48.436;10.298;2022-11-20T06:17:16;95763.06;;;4.65;100.00
39141;BME280;24875;48.436;10.298;2022-11-20T06:19:42;95763.84;;;4.66;100.00
39141;BME280;24875;48.436;10.298;2022-11-20T06:22:09;95767.50;;;4.73;100.00
39141;BME280;24875;48.436;10.298;2022-11-20T06:24:36;95757.47;;;4.85;100.00
39141;BME280;24875;48.436;10.298;2022-11-20T06:27:03;95768.69;;;4.78;100.00
39141;BME280;24875;48.436;10.298;2022-11-20T06:29:29;95771.97;;;4.80;100.00
39141;BME280;24875;48.436;10.298;2022-11-20T06:31:56;95763.38;;;4.87;100.00
39141;BME280;24875;48.436;10.298;2022-11-20T06:34:22;95766.03;;;4.95;100.00
39141;BME280;24875;48.436;10.298;2022-11-20T06:36:49;95765.72;;;4.98;100.00
39141;BME280;24875;48.436;10.298;2022-11-20T06:39:15;95761.09;;;4.92;100.00
39141;BME280;24875;48.436;10.298;2022-11-20T06:41:43;95767.19;;;5.01;100.00
39141;BME280;24875;48.436;10.298;2022-11-20T06:44:10;95769.28;;;4.97;100.00
39141;BME280;24875;48.436;10.298;2022-11-20T06:46:36;95771.91;;;4.97;100.00
39141;BME280;24875;48.436;10.298;2022-11-20T06:49:03;95772.28;;;5.10;100.00
39141;BME280;24875;48.436;10.298;2022-11-20T06:51:29;95779.47;;;5.08;100.00
39141;BME280;24875;48.436;10.298;2022-11-20T06:53:56;95777.78;;;4.99;100.00
39141;BME280;24875;48.436;10.298;2022-11-20T06:56:22;95776.09;;;5.16;100.00
39141;BME280;24875;48.436;10.298;2022-11-20T06:58:50;95782.47;;;5.21;100.00
39141;BME280;24875;48.436;10.298;2022-11-20T07:01:17;95793.25;;;5.18;100.00
39141;BME280;24875;48.436;10.298;2022-11-20T07:03:43;95794.56;;;5.22;100.00
39141;BME280;24875;48.436;10.298;2022-11-20T07:06:10;95796.09;;;5.33;100.00
39141;BME280;24875;48.436;10.298;2022-11-20T07:08:37;95796.59;;;5.36;100.00
39141;BME280;24875;48.436;10.298;2022-11-20T07:11:05;95798.13;;;5.46;100.00
39141;BME280;24875;48.436;10.298;2022-11-20T07:13:32;95805.22;;;5.29;100.00
39141;BME280;24875;48.436;10.298;2022-11-20T07:16:01;95802.19;;;5.41;100.00
39141;BME280;24875;48.436;10.298;2022-11-20T07:18:28;95805.09;;;5.38;100.00
39141;BME280;24875;48.436;10.298;2022-11-20T07:20:54;95808.25;;;5.49;100.00
39141;BME280;24875;48.436;10.298;2022-11-20T07:23:21;95812.66;;;5.49;100.00
39141;BME280;24875;48.436;10.298;2022-11-20T07:25:47;95806.91;;;5.38;100.00
39141;BME280;24875;48.436;10.298;2022-11-20T07:28:14;95804.34;;;5.53;100.00
39141;BME280;24875;48.436;10.298;2022-11-20T07:30:40;95811.25;;;5.62;100.00
39141;BME280;24875;48.436;10.298;2022-11-20T07:33:08;95816.16;;;5.65;100.00
39141;BME280;24875;48.436;10.298;2022-11-20T07:35:35;95820.84;;;5.54;100.00
39141;BME280;24875;48.436;10.298;2022-11-20T07:38:01;95807.13;;;5.60;100.00
39141;BME280;24875;48.436;10.298;2022-11-20T07:40:27;95819.91;;;5.63;100.00
39141;BME280;24875;48.436;10.298;2022-11-20T07:42:54;95818.66;;;5.75;100.00
39141;BME280;24875;48.436;10.298;2022-11-20T07:45:22;95823.53;;;5.70;100.00
39141;BME280;24875;48.436;10.298;2022-11-20T07:47:51;95821.22;;;5.67;100.00
39141;BME280;24875;48.436;10.298;2022-11-20T07:50:19;95818.34;;;5.78;100.00
39141;BME280;24875;48.436;10.298;2022-11-20T07:52:46;95809.47;;;5.63;100.00
39141;BME280;24875;48.436;10.298;2022-11-20T07:55:12;95810.81;;;5.75;100.00
39141;BME280;24875;48.436;10.298;2022-11-20T07:57:39;95812.00;;;5.80;100.00
39141;BME280;24875;48.436;10.298;2022-11-20T08:00:08;95806.63;;;5.82;100.00
39141;BME280;24875;48.436;10.298;2022-11-20T08:02:36;95812.50;;;5.84;100.00
39141;BME280;24875;48.436;10.298;2022-11-20T08:05:04;95804.84;;;5.90;100.00
39141;BME280;24875;48.436;10.298;2022-11-20T08:07:36;95822.00;;;5.93;100.00
39141;BME280;24875;48.436;10.298;2022-11-20T08:10:03;95816.66;;;6.02;100.00
39141;BME280;24875;48.436;10.298;2022-11-20T08:12:30;95812.03;;;5.88;100.00
39141;BME280;24875;48.436;10.298;2022-11-20T08:15:14;95815.47;;;5.89;100.00
39141;BME280;24875;48.436;10.298;2022-11-20T08:17:40;95815.47;;;5.97;100.00
39141;BME280;24875;48.436;10.298;2022-11-20T08:20:08;95818.59;;;6.00;100.00
39141;BME280;24875;48.436;10.298;2022-11-20T08:22:36;95809.59;;;5.95;100.00
39141;BME280;24875;48.436;10.298;2022-11-20T08:25:03;95818.59;;;5.92;100.00
39141;BME280;24875;48.436;10.298;2022-11-20T08:27:31;95819.09;;;6.04;100.00
39141;BME280;24875;48.436;10.298;2022-11-20T08:29:57;95823.13;;;5.90;100.00
39141;BME280;24875;48.436;10.298;2022-11-20T08:32:24;95820.38;;;5.92;100.00
39141;BME280;24875;48.436;10.298;2022-11-20T08:34:50;95828.56;;;5.97;100.00
39141;BME280;24875;48.436;10.298;2022-11-20T08:37:17;95824.50;;;6.02;100.00
39141;BME280;24875;48.436;10.298;2022-11-20T08:39:45;95828.09;;;6.09;100.00
39141;BME280;24875;48.436;10.298;2022-11-20T08:42:12;95823.50;;;6.03;100.00
39141;BME280;24875;48.436;10.298;2022-11-20T08:44:38;95822.38;;;6.05;100.00
39141;BME280;24875;48.436;10.298;2022-11-20T08:47:05;95830.03;;;6.07;100.00
39141;BME280;24875;48.436;10.298;2022-11-20T08:49:31;95826.78;;;6.05;100.00
39141;BME280;24875;48.436;10.298;2022-11-20T08:51:57;95825.84;;;6.14;100.00
39141;BME280;24875;48.436;10.298;2022-11-20T08:54:24;95825.66;;;6.15;100.00
39141;BME280;24875;48.436;10.298;2022-11-20T08:56:52;95833.50;;;6.15;100.00
39141;BME280;24875;48.436;10.298;2022-11-20T08:59:18;95834.13;;;6.09;100.00
39141;BME280;24875;48.436;10.298;2022-11-20T09:01:45;95832.03;;;6.13;100.00
39141;BME280;24875;48.436;10.298;2022-11-20T09:04:11;95834.97;;;6.10;100.00
39141;BME280;24875;48.436;10.298;2022-11-20T09:06:39;95835.44;;;6.05;100.00
39141;BME280;24875;48.436;10.298;2022-11-20T09:09:05;95822.72;;;6.18;100.00
39141;BME280;24875;48.436;10.298;2022-11-20T09:11:32;95828.56;;;6.04;100.00
39141;BME280;24875;48.436;10.298;2022-11-20T09:14:00;95821.91;;;6.26;100.00
39141;BME280;24875;48.436;10.298;2022-11-20T09:16:27;95814.88;;;6.10;100.00
39141;BME280;24875;48.436;10.298;2022-11-20T09:18:54;95821.09;;;6.17;100.00
39141;BME280;24875;48.436;10.298;2022-11-20T09:21:20;95820.44;;;6.23;100.00
39141;BME280;24875;48.436;10.298;2022-11-20T09:23:48;95817.03;;;6.31;100.00
39141;BME280;24875;48.436;10.298;2022-11-20T09:26:14;95823.44;;;6.44;100.00
39141;BME280;24875;48.436;10.298;2022-11-20T09:28:41;95820.34;;;6.65;100.00
39141;BME280;24875;48.436;10.298;2022-11-20T09:31:17;95802.78;;;7.13;100.00
39141;BME280;24875;48.436;10.298;2022-11-20T09:33:45;95809.19;;;7.02;100.00
39141;BME280;24875;48.436;10.298;2022-11-20T09:36:12;95804.28;;;6.99;100.00
39141;BME280;24875;48.436;10.298;2022-11-20T09:38:38;95813.63;;;6.70;100.00
39141;BME280;24875;48.436;10.298;2022-11-20T09:41:06;95822.78;;;6.82;100.00
39141;BME280;24875;48.436;10.298;2022-11-20T09:43:45;95815.59;;;6.76;100.00
39141;BME280;24875;48.436;10.298;2022-11-20T09:46:17;95817.72;;;6.72;100.00
39141;BME280;24875;48.436;10.298;2022-11-20T09:48:59;95808.56;;;6.61;100.00
39141;BME280;24875;48.436;10.298;2022-11-20T09:51:36;95809.72;;;6.58;100.00
39141;BME280;24875;48.436;10.298;2022-11-20T09:54:15;95807.41;;;6.55;100.00
39141;BME280;24875;48.436;10.298;2022-11-20T09:56:46;95806.59;;;6.78;100.00
39141;BME280;24875;48.436;10.298;2022-11-20T09:59:28;95811.19;;;6.68;100.00
39141;BME280;24875;48.436;10.298;2022-11-20T10:01:59;95808.56;;;6.76;100.00
39141;BME280;24875;48.436;10.298;2022-11-20T10:04:28;95814.44;;;6.70;100.00
39141;BME280;24875;48.436;10.298;2022-11-20T10:07:03;95810.34;;;6.84;100.00
39141;BME280;24875;48.436;10.298;2022-11-20T10:09:34;95811.50;;;6.81;100.00
39141;BME280;24875;48.436;10.298;2022-11-20T10:12:11;95804.13;;;6.93;100.00
39141;BME280;24875;48.436;10.298;2022-11-20T10:14:49;95798.53;;;7.04;100.00
39141;BME280;24875;48.436;10.298;2022-11-20T10:17:28;95811.16;;;7.00;100.00
39141;BME280;24875;48.436;10.298;2022-11-20T10:20:16;95802.47;;;7.00;100.00
39141;BME280;24875;48.436;10.298;2022-11-20T10:22:53;95795.44;;;6.92;100.00
39141;BME280;24875;48.436;10.298;2022-11-20T10:25:29;95797.91;;;6.86;100.00
39141;BME280;24875;48.436;10.298;2022-11-20T10:28:14;95803.13;;;7.02;100.00
39141;BME280;24875;48.436;10.298;2022-11-20T10:30:45;95791.66;;;7.11;100.00
39141;BME280;24875;48.436;10.298;2022-11-20T10:33:19;95794.31;;;7.03;100.00
39141;BME280;24875;48.436;10.298;2022-11-20T10:35:52;95787.41;;;7.10;100.00
39141;BME280;24875;48.436;10.298;2022-11-20T10:38:24;95794.91;;;7.28;100.00
39141;BME280;24875;48.436;10.298;2022-11-20T10:40:54;95791.91;;;7.39;100.00
39141;BME280;24875;48.436;10.298;2022-11-20T10:43:43;95788.16;;;7.34;100.00
39141;BME280;24875;48.436;10.298;2022-11-20T10:46:14;95791.75;;;7.41;100.00
39141;BME280;24875;48.436;10.298;2022-11-20T10:48:44;95793.50;;;7.56;100.00
39141;BME280;24875;48.436;10.298;2022-11-20T10:51:17;95785.63;;;7.48;100.00
39141;BME280;24875;48.436;10.298;2022-11-20T10:53:58;95790.69;;;7.58;100.00
39141;BME280;24875;48.436;10.298;2022-11-20T10:56:35;95781.22;;;7.49;100.00
39141;BME280;24875;48.436;10.298;2022-11-20T10:59:29;95787.09;;;7.51;100.00
39141;BME280;24875;48.436;10.298;2022-11-20T11:01:59;95789.44;;;7.46;100.00
39141;BME280;24875;48.436;10.298;2022-11-20T11:04:34;95784.97;;;7.54;100.00
39141;BME280;24875;48.436;10.298;2022-11-20T11:07:08;95786.47;;;7.49;100.00
39141;BME280;24875;48.436;10.298;2022-11-20T11:09:39;95787.94;;;7.51;100.00
39141;BME280;24875;48.436;10.298;2022-11-20T11:12:08;95781.88;;;7.51;100.00
39141;BME280;24875;48.436;10.298;2022-11-20T11:14:43;95779.69;;;7.70;100.00
39141;BME280;24875;48.436;10.298;2022-11-20T11:17:20;95774.13;;;7.57;100.00
39141;BME280;24875;48.436;10.298;2022-11-20T11:19:58;95780.13;;;7.35;100.00
39141;BME280;24875;48.436;10.298;2022-11-20T11:22:24;95774.28;;;7.26;100.00
39141;BME280;24875;48.436;10.298;2022-11-20T11:24:52;95771.13;;;7.30;100.00
39141;BME280;24875;48.436;10.298;2022-11-20T11:27:19;95769.97;;;7.32;100.00
39141;BME280;24875;48.436;10.298;2022-11-20T11:29:46;95771.44;;;7.35;100.00
39141;BME280;24875;48.436;10.298;2022-11-20T11:32:14;95772.91;;;7.37;100.00
39141;BME280;24875;48.436;10.298;2022-11-20T11:34:41;95770.25;;;7.45;100.00
39141;BME280;24875;48.436;10.298;2022-11-20T11:37:15;95777.50;;;7.35;100.00
39141;BME280;24875;48.436;10.298;2022-11-20T11:39:44;95771.28;;;7.36;100.00
39141;BME280;24875;48.436;10.298;2022-11-20T11:42:15;95770.16;;;7.31;100.00
39141;BME280;24875;48.436;10.298;2022-11-20T11:44:44;95765.75;;;7.24;100.00
39141;BME280;24875;48.436;10.298;2022-11-20T11:47:31;95768.22;;;7.17;100.00
39141;BME280;24875;48.436;10.298;2022-11-20T11:50:13;95759.16;;;7.35;100.00
39141;BME280;24875;48.436;10.298;2022-11-20T11:52:45;95756.22;;;7.30;100.00
39141;BME280;24875;48.436;10.298;2022-11-20T11:55:16;95754.66;;;7.52;100.00
39141;BME280;24875;48.436;10.298;2022-11-20T11:57:48;95754.19;;;7.48;100.00
39141;BME280;24875;48.436;10.298;2022-11-20T12:00:18;95749.25;;;7.53;100.00
39141;BME280;24875;48.436;10.298;2022-11-20T12:02:55;95752.22;;;7.50;100.00
39141;BME280;24875;48.436;10.298;2022-11-20T12:05:26;95744.00;;;7.53;100.00
39141;BME280;24875;48.436;10.298;2022-11-20T12:07:57;95746.44;;;7.63;100.00
39141;BME280;24875;48.436;10.298;2022-11-20T12:10:38;95750.84;;;7.62;100.00
39141;BME280;24875;48.436;10.298;2022-11-20T12:13:17;95750.00;;;7.70;100.00
39141;BME280;24875;48.436;10.298;2022-11-20T12:15:47;95746.75;;;7.60;100.00
39141;BME280;24875;48.436;10.298;2022-11-20T12:18:15;95742.78;;;7.72;100.00
39141;BME280;24875;48.436;10.298;2022-11-20T12:20:52;95741.97;;;7.71;100.00
39141;BME280;24875;48.436;10.298;2022-11-20T12:23:28;95747.81;;;7.81;100.00
39141;BME280;24875;48.436;10.298;2022-11-20T12:26:01;95743.22;;;7.83;100.00
39141;BME280;24875;48.436;10.298;2022-11-20T12:28:44;95741.94;;;7.79;100.00
39141;BME280;24875;48.436;10.298;2022-11-20T12:31:30;95741.22;;;7.85;100.00
39141;BME280;24875;48.436;10.298;2022-11-20T12:34:18;95737.56;;;7.94;100.00
39141;BME280;24875;48.436;10.298;2022-11-20T12:36:53;95732.31;;;8.02;100.00
39141;BME280;24875;48.436;10.298;2022-11-20T12:39:34;95733.16;;;7.94;100.00
39141;BME280;24875;48.436;10.298;2022-11-20T12:42:21;95721.44;;;8.05;100.00
39141;BME280;24875;48.436;10.298;2022-11-20T12:45:29;95722.06;;;8.15;100.00
39141;BME280;24875;48.436;10.298;2022-11-20T12:48:20;95728.97;;;8.08;100.00
39141;BME280;24875;48.436;10.298;2022-11-20T12:51:05;95726.28;;;7.93;100.00
39141;BME280;24875;48.436;10.298;2022-11-20T12:53:40;95727.09;;;7.94;100.00
39141;BME280;24875;48.436;10.298;2022-11-20T12:56:20;95725.28;;;7.94;100.00
39141;BME280;24875;48.436;10.298;2022-11-20T12:58:56;95721.81;;;8.02;100.00
39141;BME280;24875;48.436;10.298;2022-11-20T13:01:32;95742.19;;;7.92;100.00